| time (UTC) | temp F | wind direction | speed MPH | gust MPH | rain 1hr in | rain 24hr in | rain mn in | humidity % | barometer mb |
| 20260831015016 | 79 | 0.0 | 2.0 | 0.00 | 0.00 | 0.00 | 72 | 1010.9 | |
| 20260831014016 | 79 | 0.0 | 1.0 | 0.00 | 0.00 | 0.00 | 73 | 1010.9 | |
| 20260831013016 | 80 | 0.0 | 1.0 | 0.00 | 0.00 | 0.00 | 73 | 1010.9 | |
| 20260831012016 | 80 | 0.0 | 1.0 | 0.00 | 0.00 | 0.00 | 73 | 1010.7 | |
| 20260831011016 | 81 | 0.0 | 2.0 | 0.00 | 0.00 | 0.00 | 74 | 1010.6 | |
| 20260831010036 | 81 | 0.0 | 2.0 | 0.00 | 0.00 | 0.00 | 73 | 1010.5 | |
| 20260831005017 | 81 | 0.0 | 3.0 | 0.00 | 0.00 | 0.00 | 73 | 1010.4 | |
| 20260831004016 | 82 | 0.0 | 3.0 | 0.00 | 0.00 | 0.00 | 73 | 1010.6 | |
| 20260831003017 | 82 | 0.0 | 2.0 | 0.00 | 0.00 | 0.00 | 73 | 1010.6 | |
| 20260831002016 | 82 | 0.0 | 4.0 | 0.00 | 0.00 | 0.00 | 72 | 1010.4 | |
| 20260831001036 | 83 | 0.0 | 3.0 | 0.00 | 0.00 | 0.00 | 72 | 1010.4 | |
| 20260831000017 | 83 | 0.0 | 3.0 | 0.00 | 0.00 | 0.00 | 73 | 1010.4 | |
| 20260830235016 | 83 | 0.0 | 1.0 | 0.00 | 0.00 | 0.00 | 73 | 1010.2 | |
| 20260830234036 | 82 | 0.0 | 3.0 | 0.00 | 0.00 | 0.00 | 73 | 1010.1 | |
| 20260830233057 | 82 | 0.0 | 2.0 | 0.00 | 0.00 | 0.00 | 73 | 1010.1 | |
| 20260830232037 | 82 | 90 | 2.0 | 9.0 | 0.00 | 0.00 | 0.00 | 73 | 1010.1 |
| 20260830231017 | 82 | 68 | 1.0 | 6.0 | 0.00 | 0.00 | 0.00 | 72 | 1010.0 |
| 20260830230016 | 83 | 113 | 2.0 | 9.0 | 0.00 | 0.00 | 0.00 | 72 | 1010.0 |
| 20260830225017 | 83 | 113 | 2.0 | 6.0 | 0.00 | 0.00 | 0.00 | 71 | 1009.9 |
| 20260830224016 | 84 | 203 | 1.0 | 3.0 | 0.00 | 0.00 | 0.00 | 70 | 1009.9 |
| 20260830223016 | 83 | 68 | 1.0 | 4.0 | 0.00 | 0.00 | 0.00 | 71 | 1009.9 |
| 20260830222017 | 84 | 90 | 1.0 | 5.0 | 0.00 | 0.00 | 0.00 | 70 | 1009.6 |
| 20260830221017 | 85 | 0.0 | 2.0 | 0.00 | 0.00 | 0.00 | 69 | 1009.7 | |
| 20260830220016 | 85 | 0.0 | 3.0 | 0.00 | 0.00 | 0.00 | 68 | 1009.7 | |
| 20260830215016 | 85 | 90 | 1.0 | 6.0 | 0.00 | 0.00 | 0.00 | 69 | 1009.9 |
| 20260830214016 | 85 | 180 | 2.0 | 8.0 | 0.00 | 0.00 | 0.00 | 69 | 1010.0 |
| 20260830213016 | 84 | 113 | 1.0 | 5.0 | 0.00 | 0.00 | 0.00 | 70 | 1009.9 |
| 20260830212016 | 83 | 0.0 | 3.0 | 0.00 | 0.00 | 0.00 | 71 | 1010.1 | |
| 20260830211016 | 83 | 90 | 2.0 | 9.0 | 0.00 | 0.00 | 0.00 | 71 | 1010.2 |
| 20260830210016 | 84 | 135 | 1.0 | 5.0 | 0.00 | 0.00 | 0.00 | 70 | 1010.2 |
| 20260830205016 | 83 | 90 | 2.0 | 7.0 | 0.00 | 0.00 | 0.00 | 71 | 1010.2 |
| 20260830204016 | 82 | 113 | 3.0 | 7.0 | 0.00 | 0.00 | 0.00 | 72 | 1009.9 |
| 20260830203016 | 83 | 113 | 3.0 | 13.0 | 0.00 | 0.00 | 0.00 | 71 | 1010.1 |
| 20260830202016 | 82 | 135 | 3.0 | 8.0 | 0.00 | 0.00 | 0.00 | 72 | 1010.2 |
| 20260830201016 | 82 | 113 | 2.0 | 9.0 | 0.00 | 0.00 | 0.00 | 72 | 1010.0 |
| 20260830200037 | 82 | 113 | 2.0 | 10.0 | 0.00 | 0.00 | 0.00 | 73 | 1010.1 |
| 20260830195036 | 81 | 68 | 1.0 | 5.0 | 0.00 | 0.00 | 0.00 | 73 | 1010.2 |
| 20260830194016 | 81 | 113 | 4.0 | 12.0 | 0.00 | 0.00 | 0.00 | 73 | 1010.2 |
| 20260830193017 | 81 | 68 | 1.0 | 4.0 | 0.00 | 0.00 | 0.00 | 73 | 1010.4 |
| 20260830192016 | 79 | 90 | 2.0 | 6.0 | 0.00 | 0.00 | 0.00 | 74 | 1010.6 |
| 20260830191016 | 79 | 113 | 2.0 | 9.0 | 0.00 | 0.00 | 0.00 | 74 | 1010.9 |
| 20260830190016 | 79 | 90 | 2.0 | 6.0 | 0.00 | 0.00 | 0.00 | 74 | 1011.1 |
| 20260830185016 | 79 | 90 | 2.0 | 8.0 | 0.00 | 0.00 | 0.00 | 74 | 1011.0 |
| 20260830184037 | 79 | 113 | 2.0 | 6.0 | 0.00 | 0.00 | 0.00 | 74 | 1011.1 |
| 20260830183016 | 79 | 90 | 1.0 | 5.0 | 0.00 | 0.00 | 0.00 | 74 | 1011.2 |
| 20260830182016 | 79 | 68 | 1.0 | 7.0 | 0.00 | 0.00 | 0.00 | 74 | 1011.4 |
| 20260830181036 | 79 | 0.0 | 5.0 | 0.00 | 0.00 | 0.00 | 74 | 1011.6 | |
| 20260830180016 | 79 | 0.0 | 2.0 | 0.00 | 0.00 | 0.00 | 74 | 1011.8 | |
| 20260830175017 | 79 | 90 | 1.0 | 7.0 | 0.00 | 0.00 | 0.00 | 74 | 1011.8 |
| 20260830174016 | 79 | 90 | 1.0 | 6.0 | 0.00 | 0.00 | 0.00 | 74 | 1011.8 |
| 20260830173016 | 80 | 113 | 1.0 | 6.0 | 0.00 | 0.00 | 0.00 | 73 | 1011.8 |
| 20260830172016 | 80 | 113 | 3.0 | 11.0 | 0.00 | 0.00 | 0.00 | 72 | 1011.4 |
| 20260830171056 | 80 | 113 | 1.0 | 5.0 | 0.00 | 0.00 | 0.00 | 73 | 1011.0 |
| 20260830170016 | 80 | 90 | 1.0 | 7.0 | 0.00 | 0.00 | 0.00 | 73 | 1011.0 |
| 20260830165016 | 80 | 90 | 2.0 | 6.0 | 0.00 | 0.00 | 0.00 | 74 | 1010.8 |
| 20260830164017 | 80 | 113 | 1.0 | 5.0 | 0.00 | 0.00 | 0.00 | 74 | 1010.4 |
| 20260830163036 | 79 | 68 | 3.0 | 8.0 | 0.00 | 0.00 | 0.00 | 74 | 1010.3 |
| 20260830162016 | 79 | 113 | 2.0 | 7.0 | 0.00 | 0.00 | 0.00 | 74 | 1010.7 |
| 20260830161017 | 78 | 68 | 2.0 | 6.0 | 0.00 | 0.02 | 0.00 | 74 | 1010.7 |
| 20260830160016 | 77 | 0.0 | 4.0 | 0.00 | 0.06 | 0.00 | 74 | 1010.9 | |
| 20260830155036 | 76 | 0 | 1.0 | 3.0 | 0.00 | 0.12 | 0.00 | 74 | 1010.6 |
| 20260830154016 | 77 | 0 | 1.0 | 3.0 | 0.00 | 0.12 | 0.00 | 74 | 1010.6 |
| 20260830153016 | 77 | 113 | 1.0 | 6.0 | 0.00 | 0.13 | 0.00 | 74 | 1010.5 |
| 20260830152016 | 76 | 113 | 1.0 | 4.0 | 0.00 | 0.19 | 0.00 | 73 | 1010.7 |
| 20260830151036 | 76 | 90 | 1.0 | 3.0 | 0.00 | 0.22 | 0.00 | 73 | 1010.8 |
| 20260830150016 | 74 | 90 | 1.0 | 4.0 | 0.00 | 0.24 | 0.00 | 70 | 1010.8 |
| 20260830145036 | 74 | 45 | 2.0 | 4.0 | 0.00 | 0.29 | 0.00 | 69 | 1010.8 |
| 20260830144016 | 74 | 90 | 2.0 | 6.0 | 0.00 | 0.43 | 0.00 | 67 | 1010.8 |
| 20260830143016 | 73 | 68 | 1.0 | 6.0 | 0.00 | 0.48 | 0.00 | 62 | 1010.9 |
| 20260830142016 | 73 | 90 | 1.0 | 4.0 | 0.00 | 0.51 | 0.00 | 61 | 1010.9 |
| 20260830141016 | 72 | 0.0 | 1.0 | 0.00 | 0.53 | 0.00 | 59 | 1011.2 | |
| 20260830140016 | 72 | 90 | 1.0 | 4.0 | 0.00 | 0.54 | 0.00 | 57 | 1010.8 |
| 20260830135036 | 71 | 113 | 1.0 | 4.0 | 0.00 | 0.55 | 0.00 | 38 | 1011.0 |
| 20260830134036 | 70 | 90 | 3.0 | 6.0 | 0.00 | 0.56 | 0.00 | 30 | 1010.7 |
| 20260830133016 | 70 | 68 | 1.0 | 3.0 | 0.00 | 0.58 | 0.00 | 22 | 1011.0 |
| 20260830132016 | 69 | 0.0 | 3.0 | 0.00 | 0.59 | 0.00 | 9 | 1011.1 | |
| 20260830131016 | 69 | 0.0 | 2.0 | 0.00 | 0.59 | 0.00 | 4 | 1011.1 | |
| 20260830130016 | 69 | 0.0 | 1.0 | 0.00 | 0.60 | 0.00 | 1 | 1011.0 | |
| 20260830125016 | 68 | 0.0 | 0.0 | 0.00 | 0.60 | 0.00 | 1 | 1010.9 | |
| 20260830124016 | 68 | 0.0 | 3.0 | 0.00 | 0.62 | 0.00 | 1 | 1010.4 | |
| 20260830123016 | 68 | 113 | 1.0 | 3.0 | 0.00 | 0.64 | 0.00 | 1 | 1010.3 |
| 20260830122016 | 67 | 0.0 | 3.0 | 0.00 | 0.64 | 0.00 | 1 | 1010.4 | |
| 20260830121056 | 67 | 113 | 1.0 | 3.0 | 0.00 | 0.65 | 0.00 | 1 | 1010.4 |
| 20260830120016 | 67 | 0.0 | 3.0 | 0.00 | 0.66 | 0.00 | 1 | 1010.4 | |
| 20260830115016 | 67 | 0.0 | 2.0 | 0.00 | 0.66 | 0.00 | 1 | 1010.7 | |
| 20260830114016 | 67 | 0.0 | 2.0 | 0.00 | 0.66 | 0.00 | 1 | 1010.9 | |
| 20260830113036 | 67 | 0.0 | 1.0 | 0.00 | 0.66 | 0.00 | 1 | 1010.8 | |
| 20260830112016 | 67 | 0.0 | 1.0 | 0.00 | 0.66 | 0.00 | 1 | 1010.7 | |
| 20260830111016 | 67 | 0.0 | 0.0 | 0.00 | 0.66 | 0.00 | 1 | 1010.5 | |
| 20260830110036 | 67 | 0.0 | 3.0 | 0.00 | 0.66 | 0.00 | 1 | 1010.5 | |
| 20260830105016 | 67 | 0.0 | 2.0 | 0.00 | 0.66 | 0.00 | 1 | 1010.4 | |
| 20260830104016 | 66 | 0.0 | 1.0 | 0.00 | 0.66 | 0.00 | 1 | 1010.1 | |
| 20260830103016 | 66 | 0.0 | 0.0 | 0.00 | 0.66 | 0.00 | 1 | 1010.3 | |
| 20260830102016 | 66 | 0.0 | 0.0 | 0.00 | 0.66 | 0.00 | 1 | 1010.5 | |
| 20260830101016 | 66 | 0.0 | 0.0 | 0.00 | 0.66 | 0.00 | 1 | 1010.5 | |
| 20260830100016 | 66 | 0.0 | 0.0 | 0.00 | 0.66 | 0.00 | 1 | 1010.3 | |
| 20260830095016 | 67 | 0.0 | 1.0 | 0.00 | 0.66 | 0.00 | 1 | 1010.3 | |
| 20260830094016 | 67 | 0.0 | 0.0 | 0.00 | 0.66 | 0.00 | 1 | 1010.4 | |
| 20260830093036 | 67 | 0.0 | 1.0 | 0.00 | 0.66 | 0.00 | 1 | 1010.4 | |
| 20260830092016 | 67 | 0.0 | 3.0 | 0.00 | 0.66 | 0.00 | 1 | 1010.3 | |
| 20260830091016 | 67 | 0.0 | 0.0 | 0.00 | 0.66 | 0.00 | 1 | 1010.5 | |
| 20260830090016 | 67 | 0.0 | 1.0 | 0.00 | 0.66 | 0.00 | 1 | 1010.4 | |
| 20260830085016 | 67 | 0.0 | 3.0 | 0.00 | 0.66 | 0.00 | 1 | 1010.5 | |
| 20260830084016 | 67 | 0.0 | 2.0 | 0.00 | 0.66 | 0.00 | 1 | 1010.8 | |
| 20260830083016 | 67 | 0.0 | 3.0 | 0.00 | 0.66 | 0.00 | 1 | 1010.9 | |
| 20260830082016 | 68 | 0.0 | 2.0 | 0.00 | 0.66 | 0.00 | 1 | 1010.9 | |
| 20260830081016 | 68 | 0.0 | 3.0 | 0.00 | 0.66 | 0.00 | 1 | 1010.9 | |
| 20260830080016 | 68 | 0.0 | 2.0 | 0.00 | 0.66 | 0.00 | 1 | 1011.0 | |
| 20260830075036 | 68 | 0.0 | 1.0 | 0.00 | 0.66 | 0.00 | 1 | 1011.0 | |
| 20260830074016 | 68 | 0.0 | 2.0 | 0.00 | 0.66 | 0.00 | 1 | 1010.9 | |
| 20260830073036 | 68 | 0.0 | 1.0 | 0.00 | 0.66 | 0.00 | 1 | 1011.0 | |
| 20260830072016 | 68 | 0.0 | 0.0 | 0.00 | 0.66 | 0.00 | 3 | 1011.1 | |
| 20260830071036 | 68 | 0.0 | 1.0 | 0.00 | 0.66 | 0.00 | 4 | 1011.3 | |
| 20260830070016 | 68 | 0.0 | 1.0 | 0.00 | 0.66 | 0.00 | 8 | 1011.3 | |
| 20260830065016 | 68 | 0.0 | 0.0 | 0.00 | 0.66 | 0.00 | 12 | 1011.3 | |
| 20260830064016 | 68 | 0.0 | 2.0 | 0.00 | 0.66 | 0.00 | 15 | 1011.4 | |
| 20260830063016 | 68 | 113 | 1.0 | 3.0 | 0.00 | 0.66 | 0.00 | 14 | 1011.3 |
| 20260830062016 | 68 | 0.0 | 1.0 | 0.00 | 0.66 | 0.00 | 17 | 1011.3 | |
| 20260830061016 | 68 | 0.0 | 2.0 | 0.00 | 0.66 | 0.00 | 19 | 1011.3 | |
| 20260830060016 | 68 | 90 | 1.0 | 4.0 | 0.00 | 0.66 | 0.00 | 18 | 1011.2 |
| 20260830055016 | 68 | 0.0 | 3.0 | 0.00 | 0.66 | 0.00 | 19 | 1011.3 | |
| 20260830054016 | 68 | 90 | 1.0 | 3.0 | 0.00 | 0.66 | 0.00 | 22 | 1011.7 |
| 20260830053016 | 69 | 0.0 | 1.0 | 0.00 | 0.66 | 0.00 | 28 | 1011.8 | |
| 20260830052036 | 69 | 113 | 1.0 | 4.0 | 0.00 | 0.66 | 0.00 | 31 | 1011.8 |
| 20260830051016 | 69 | 90 | 1.0 | 4.0 | 0.00 | 0.66 | 0.00 | 33 | 1011.8 |
| 20260830050016 | 69 | 0.0 | 3.0 | 0.00 | 0.66 | 0.66 | 37 | 1011.8 | |
| 20260830045017 | 69 | 0.0 | 0.0 | 0.00 | 0.66 | 0.66 | 39 | 1012.1 | |
| 20260830044016 | 69 | 0.0 | 2.0 | 0.00 | 0.66 | 0.66 | 40 | 1012.0 | |
| 20260830043016 | 69 | 90 | 1.0 | 3.0 | 0.00 | 0.66 | 0.66 | 42 | 1012.0 |
| 20260830042017 | 69 | 0.0 | 1.0 | 0.00 | 0.66 | 0.66 | 43 | 1012.1 | |
| 20260830041017 | 70 | 0.0 | 0.0 | 0.00 | 0.66 | 0.66 | 48 | 1012.2 | |
| 20260830040037 | 70 | 0.0 | 0.0 | 0.00 | 0.66 | 0.66 | 52 | 1012.4 | |
| 20260830035017 | 70 | 135 | 1.0 | 5.0 | 0.00 | 0.66 | 0.66 | 51 | 1012.2 |
| 20260830034016 | 70 | 0.0 | 1.0 | 0.00 | 0.66 | 0.66 | 52 | 1012.3 | |
| 20260830033017 | 70 | 0.0 | 2.0 | 0.00 | 0.66 | 0.66 | 55 | 1012.4 | |
| 20260830032016 | 70 | 0.0 | 3.0 | 0.00 | 0.66 | 0.66 | 58 | 1012.4 | |
| 20260830031016 | 70 | 90 | 1.0 | 3.0 | 0.00 | 0.66 | 0.66 | 59 | 1012.2 |
| 20260830030017 | 70 | 113 | 1.0 | 4.0 | 0.00 | 0.66 | 0.66 | 59 | 1012.2 |
| 20260830025017 | 71 | 0.0 | 1.0 | 0.00 | 0.66 | 0.66 | 60 | 1012.2 | |
| 20260830024016 | 71 | 90 | 1.0 | 8.0 | 0.00 | 0.66 | 0.66 | 61 | 1012.3 |
| 20260830023017 | 71 | 90 | 1.0 | 4.0 | 0.00 | 0.66 | 0.66 | 62 | 1012.2 |
| 20260830022017 | 71 | 135 | 1.0 | 6.0 | 0.00 | 0.66 | 0.66 | 63 | 1012.1 |
| 20260830021016 | 71 | 113 | 1.0 | 4.0 | 0.00 | 0.66 | 0.66 | 63 | 1012.0 |
| 20260830020016 | 71 | 90 | 2.0 | 8.0 | 0.00 | 0.66 | 0.66 | 64 | 1012.0 |